sensor_id;sensor_type;location;lat;lon;timestamp;P1;durP1;ratioP1;P2;durP2;ratioP2
1048;SDS011;513;51.444;7.196;2022-12-16T00:01:01;79.18;;;41.78;;
1048;SDS011;513;51.444;7.196;2022-12-16T00:03:32;78.18;;;41.40;;
1048;SDS011;513;51.444;7.196;2022-12-16T00:05:59;79.47;;;39.33;;
1048;SDS011;513;51.444;7.196;2022-12-16T00:08:27;72.20;;;38.72;;
1048;SDS011;513;51.444;7.196;2022-12-16T00:10:55;76.28;;;38.25;;
1048;SDS011;513;51.444;7.196;2022-12-16T00:13:23;67.95;;;37.38;;
1048;SDS011;513;51.444;7.196;2022-12-16T00:15:51;72.72;;;36.45;;
1048;SDS011;513;51.444;7.196;2022-12-16T00:18:17;76.97;;;39.00;;
1048;SDS011;513;51.444;7.196;2022-12-16T00:20:45;79.95;;;39.75;;
1048;SDS011;513;51.444;7.196;2022-12-16T00:23:12;69.22;;;38.28;;
1048;SDS011;513;51.444;7.196;2022-12-16T00:25:40;68.47;;;36.00;;
1048;SDS011;513;51.444;7.196;2022-12-16T00:28:07;66.57;;;36.22;;
1048;SDS011;513;51.444;7.196;2022-12-16T00:30:34;65.60;;;35.20;;
1048;SDS011;513;51.444;7.196;2022-12-16T00:33:02;59.25;;;34.03;;
1048;SDS011;513;51.444;7.196;2022-12-16T00:35:29;58.22;;;33.08;;
1048;SDS011;513;51.444;7.196;2022-12-16T00:37:56;56.35;;;32.05;;
1048;SDS011;513;51.444;7.196;2022-12-16T00:40:22;58.58;;;32.63;;
1048;SDS011;513;51.444;7.196;2022-12-16T00:42:49;61.30;;;33.85;;
1048;SDS011;513;51.444;7.196;2022-12-16T00:45:16;60.40;;;33.25;;
1048;SDS011;513;51.444;7.196;2022-12-16T00:47:43;60.05;;;33.15;;
1048;SDS011;513;51.444;7.196;2022-12-16T00:50:11;61.38;;;33.90;;
1048;SDS011;513;51.444;7.196;2022-12-16T00:52:37;58.30;;;32.72;;
1048;SDS011;513;51.444;7.196;2022-12-16T00:55:04;58.03;;;32.17;;
1048;SDS011;513;51.444;7.196;2022-12-16T00:57:31;60.10;;;32.50;;
1048;SDS011;513;51.444;7.196;2022-12-16T00:59:58;56.42;;;32.08;;
1048;SDS011;513;51.444;7.196;2022-12-16T01:02:25;56.38;;;30.67;;
1048;SDS011;513;51.444;7.196;2022-12-16T01:04:51;54.60;;;30.55;;
1048;SDS011;513;51.444;7.196;2022-12-16T01:07:19;55.33;;;30.58;;
1048;SDS011;513;51.444;7.196;2022-12-16T01:09:46;55.85;;;31.30;;
1048;SDS011;513;51.444;7.196;2022-12-16T01:12:13;51.10;;;30.08;;
1048;SDS011;513;51.444;7.196;2022-12-16T01:14:40;52.70;;;29.75;;
1048;SDS011;513;51.444;7.196;2022-12-16T01:17:06;55.50;;;31.15;;
1048;SDS011;513;51.444;7.196;2022-12-16T01:19:33;58.50;;;30.35;;
1048;SDS011;513;51.444;7.196;2022-12-16T01:22:00;57.70;;;31.65;;
1048;SDS011;513;51.444;7.196;2022-12-16T01:24:28;66.23;;;34.10;;
1048;SDS011;513;51.444;7.196;2022-12-16T01:26:54;67.32;;;34.00;;
1048;SDS011;513;51.444;7.196;2022-12-16T01:29:21;66.15;;;33.90;;
1048;SDS011;513;51.444;7.196;2022-12-16T01:31:48;57.92;;;32.15;;
1048;SDS011;513;51.444;7.196;2022-12-16T01:34:15;58.55;;;32.22;;
1048;SDS011;513;51.444;7.196;2022-12-16T01:36:42;62.00;;;31.05;;
1048;SDS011;513;51.444;7.196;2022-12-16T01:39:09;59.00;;;32.00;;
1048;SDS011;513;51.444;7.196;2022-12-16T01:41:37;59.90;;;31.90;;
1048;SDS011;513;51.444;7.196;2022-12-16T01:44:14;58.72;;;31.73;;
1048;SDS011;513;51.444;7.196;2022-12-16T01:46:41;56.85;;;30.75;;
1048;SDS011;513;51.444;7.196;2022-12-16T01:49:12;51.92;;;28.92;;
1048;SDS011;513;51.444;7.196;2022-12-16T01:51:46;51.35;;;28.42;;
1048;SDS011;513;51.444;7.196;2022-12-16T01:54:16;47.17;;;26.70;;
1048;SDS011;513;51.444;7.196;2022-12-16T01:56:47;47.17;;;26.45;;
1048;SDS011;513;51.444;7.196;2022-12-16T01:59:16;45.75;;;26.25;;
1048;SDS011;513;51.444;7.196;2022-12-16T02:01:44;41.85;;;24.80;;
1048;SDS011;513;51.444;7.196;2022-12-16T02:04:11;42.28;;;24.70;;
1048;SDS011;513;51.444;7.196;2022-12-16T02:06:38;41.42;;;24.20;;
1048;SDS011;513;51.444;7.196;2022-12-16T02:09:05;41.85;;;24.02;;
1048;SDS011;513;51.444;7.196;2022-12-16T02:11:49;40.17;;;23.55;;
1048;SDS011;513;51.444;7.196;2022-12-16T02:14:34;39.72;;;23.17;;
1048;SDS011;513;51.444;7.196;2022-12-16T02:17:15;40.70;;;23.45;;
1048;SDS011;513;51.444;7.196;2022-12-16T02:22:46;43.95;;;24.88;;
1048;SDS011;513;51.444;7.196;2022-12-16T02:28:23;45.88;;;25.08;;
1048;SDS011;513;51.444;7.196;2022-12-16T02:31:14;44.55;;;24.13;;
1048;SDS011;513;51.444;7.196;2022-12-16T02:33:51;41.88;;;24.17;;
1048;SDS011;513;51.444;7.196;2022-12-16T02:36:27;39.33;;;23.38;;
1048;SDS011;513;51.444;7.196;2022-12-16T02:39:07;41.03;;;24.13;;
1048;SDS011;513;51.444;7.196;2022-12-16T02:41:41;40.65;;;23.50;;
1048;SDS011;513;51.444;7.196;2022-12-16T02:44:12;42.37;;;23.37;;
1048;SDS011;513;51.444;7.196;2022-12-16T02:46:46;38.53;;;22.63;;
1048;SDS011;513;51.444;7.196;2022-12-16T02:52:13;41.97;;;22.52;;
1048;SDS011;513;51.444;7.196;2022-12-16T02:54:42;39.70;;;22.75;;
1048;SDS011;513;51.444;7.196;2022-12-16T02:57:12;37.63;;;22.60;;
1048;SDS011;513;51.444;7.196;2022-12-16T02:59:50;37.87;;;21.43;;
1048;SDS011;513;51.444;7.196;2022-12-16T03:02:25;42.00;;;21.92;;
1048;SDS011;513;51.444;7.196;2022-12-16T03:05:02;37.27;;;21.70;;
1048;SDS011;513;51.444;7.196;2022-12-16T03:07:32;36.30;;;21.35;;
1048;SDS011;513;51.444;7.196;2022-12-16T03:10:03;35.75;;;21.63;;
1048;SDS011;513;51.444;7.196;2022-12-16T03:12:32;39.53;;;21.40;;
1048;SDS011;513;51.444;7.196;2022-12-16T03:15:00;39.00;;;21.65;;
1048;SDS011;513;51.444;7.196;2022-12-16T03:17:30;37.33;;;21.38;;
1048;SDS011;513;51.444;7.196;2022-12-16T03:20:00;36.47;;;21.60;;
1048;SDS011;513;51.444;7.196;2022-12-16T03:22:32;37.30;;;21.73;;
1048;SDS011;513;51.444;7.196;2022-12-16T03:25:02;40.45;;;22.00;;
1048;SDS011;513;51.444;7.196;2022-12-16T03:27:32;40.28;;;21.58;;
1048;SDS011;513;51.444;7.196;2022-12-16T03:30:04;34.05;;;20.83;;
1048;SDS011;513;51.444;7.196;2022-12-16T03:32:37;37.78;;;20.30;;
1048;SDS011;513;51.444;7.196;2022-12-16T03:35:08;30.73;;;19.02;;
1048;SDS011;513;51.444;7.196;2022-12-16T03:37:39;29.88;;;18.85;;
1048;SDS011;513;51.444;7.196;2022-12-16T03:40:08;32.05;;;19.80;;
1048;SDS011;513;51.444;7.196;2022-12-16T03:42:36;30.67;;;19.00;;
1048;SDS011;513;51.444;7.196;2022-12-16T03:45:05;35.13;;;19.53;;
1048;SDS011;513;51.444;7.196;2022-12-16T03:47:33;32.97;;;19.65;;
1048;SDS011;513;51.444;7.196;2022-12-16T03:50:02;32.13;;;19.20;;
1048;SDS011;513;51.444;7.196;2022-12-16T03:52:30;29.20;;;18.55;;
1048;SDS011;513;51.444;7.196;2022-12-16T03:54:56;30.73;;;18.98;;
1048;SDS011;513;51.444;7.196;2022-12-16T03:57:23;39.60;;;21.08;;
1048;SDS011;513;51.444;7.196;2022-12-16T03:59:50;36.75;;;21.48;;
1048;SDS011;513;51.444;7.196;2022-12-16T04:02:16;35.83;;;19.75;;
1048;SDS011;513;51.444;7.196;2022-12-16T04:04:45;30.80;;;18.92;;
1048;SDS011;513;51.444;7.196;2022-12-16T04:07:11;31.17;;;18.30;;
1048;SDS011;513;51.444;7.196;2022-12-16T04:09:48;31.27;;;18.77;;
1048;SDS011;513;51.444;7.196;2022-12-16T04:12:16;32.95;;;17.98;;
1048;SDS011;513;51.444;7.196;2022-12-16T04:15:03;29.83;;;17.48;;
1048;SDS011;513;51.444;7.196;2022-12-16T04:17:56;30.20;;;18.05;;
1048;SDS011;513;51.444;7.196;2022-12-16T04:20:43;30.38;;;17.20;;
1048;SDS011;513;51.444;7.196;2022-12-16T04:23:30;28.73;;;18.13;;
1048;SDS011;513;51.444;7.196;2022-12-16T04:26:16;27.60;;;16.42;;
1048;SDS011;513;51.444;7.196;2022-12-16T04:28:42;26.40;;;15.75;;
1048;SDS011;513;51.444;7.196;2022-12-16T04:31:09;27.15;;;15.70;;
1048;SDS011;513;51.444;7.196;2022-12-16T04:33:36;27.35;;;16.00;;
1048;SDS011;513;51.444;7.196;2022-12-16T04:36:22;27.27;;;14.70;;
1048;SDS011;513;51.444;7.196;2022-12-16T04:39:06;26.60;;;14.70;;
1048;SDS011;513;51.444;7.196;2022-12-16T04:41:55;25.75;;;15.30;;
1048;SDS011;513;51.444;7.196;2022-12-16T04:44:40;23.63;;;13.60;;
1048;SDS011;513;51.444;7.196;2022-12-16T04:47:24;28.40;;;14.20;;
1048;SDS011;513;51.444;7.196;2022-12-16T04:50:08;24.30;;;13.63;;
1048;SDS011;513;51.444;7.196;2022-12-16T04:52:54;24.13;;;13.82;;
1048;SDS011;513;51.444;7.196;2022-12-16T04:55:38;19.98;;;11.77;;
1048;SDS011;513;51.444;7.196;2022-12-16T04:58:22;21.98;;;11.32;;
1048;SDS011;513;51.444;7.196;2022-12-16T05:01:06;21.50;;;11.48;;
1048;SDS011;513;51.444;7.196;2022-12-16T05:03:50;19.70;;;11.75;;
1048;SDS011;513;51.444;7.196;2022-12-16T05:06:35;20.63;;;11.23;;
1048;SDS011;513;51.444;7.196;2022-12-16T05:09:20;23.70;;;11.10;;
1048;SDS011;513;51.444;7.196;2022-12-16T05:12:05;20.98;;;12.32;;
1048;SDS011;513;51.444;7.196;2022-12-16T05:14:49;22.60;;;13.57;;
1048;SDS011;513;51.444;7.196;2022-12-16T05:17:33;18.67;;;11.52;;
1048;SDS011;513;51.444;7.196;2022-12-16T05:20:17;18.37;;;11.43;;
1048;SDS011;513;51.444;7.196;2022-12-16T05:23:01;20.20;;;11.15;;
1048;SDS011;513;51.444;7.196;2022-12-16T05:25:46;19.55;;;11.52;;
1048;SDS011;513;51.444;7.196;2022-12-16T05:28:30;19.42;;;11.60;;
1048;SDS011;513;51.444;7.196;2022-12-16T05:31:14;23.42;;;13.07;;
1048;SDS011;513;51.444;7.196;2022-12-16T05:33:59;22.65;;;12.50;;
1048;SDS011;513;51.444;7.196;2022-12-16T05:36:43;22.17;;;13.20;;
1048;SDS011;513;51.444;7.196;2022-12-16T05:39:38;22.13;;;13.83;;
1048;SDS011;513;51.444;7.196;2022-12-16T05:42:23;22.58;;;13.93;;
1048;SDS011;513;51.444;7.196;2022-12-16T05:45:08;22.67;;;12.97;;
1048;SDS011;513;51.444;7.196;2022-12-16T05:47:52;24.05;;;13.52;;
1048;SDS011;513;51.444;7.196;2022-12-16T05:50:33;26.20;;;15.48;;
1048;SDS011;513;51.444;7.196;2022-12-16T05:53:17;37.03;;;20.50;;
1048;SDS011;513;51.444;7.196;2022-12-16T05:56:01;40.45;;;22.50;;
1048;SDS011;513;51.444;7.196;2022-12-16T05:58:48;39.00;;;22.85;;
1048;SDS011;513;51.444;7.196;2022-12-16T06:01:32;39.13;;;22.98;;
1048;SDS011;513;51.444;7.196;2022-12-16T06:04:16;40.70;;;22.57;;
1048;SDS011;513;51.444;7.196;2022-12-16T06:07:00;38.15;;;22.13;;
1048;SDS011;513;51.444;7.196;2022-12-16T06:09:44;39.38;;;22.40;;
1048;SDS011;513;51.444;7.196;2022-12-16T06:12:28;37.72;;;21.65;;
1048;SDS011;513;51.444;7.196;2022-12-16T06:15:14;39.20;;;22.90;;
1048;SDS011;513;51.444;7.196;2022-12-16T06:17:58;40.78;;;23.75;;
1048;SDS011;513;51.444;7.196;2022-12-16T06:20:42;40.03;;;23.88;;
1048;SDS011;513;51.444;7.196;2022-12-16T06:23:26;40.13;;;23.98;;
1048;SDS011;513;51.444;7.196;2022-12-16T06:26:11;46.95;;;25.05;;
1048;SDS011;513;51.444;7.196;2022-12-16T06:28:55;41.97;;;24.73;;
1048;SDS011;513;51.444;7.196;2022-12-16T06:31:40;47.97;;;25.87;;
1048;SDS011;513;51.444;7.196;2022-12-16T06:34:24;56.50;;;28.85;;
1048;SDS011;513;51.444;7.196;2022-12-16T06:37:08;55.40;;;29.27;;
1048;SDS011;513;51.444;7.196;2022-12-16T06:39:53;64.35;;;32.42;;
1048;SDS011;513;51.444;7.196;2022-12-16T06:42:38;60.58;;;33.53;;
1048;SDS011;513;51.444;7.196;2022-12-16T06:45:22;53.95;;;30.63;;
1048;SDS011;513;51.444;7.196;2022-12-16T06:48:08;53.90;;;30.95;;
1048;SDS011;513;51.444;7.196;2022-12-16T06:50:52;57.13;;;32.72;;
1048;SDS011;513;51.444;7.196;2022-12-16T06:53:36;59.07;;;30.90;;
1048;SDS011;513;51.444;7.196;2022-12-16T06:56:20;56.40;;;31.27;;
1048;SDS011;513;51.444;7.196;2022-12-16T06:59:04;61.08;;;31.45;;
1048;SDS011;513;51.444;7.196;2022-12-16T07:01:48;60.38;;;33.50;;
1048;SDS011;513;51.444;7.196;2022-12-16T07:04:34;58.38;;;32.50;;
1048;SDS011;513;51.444;7.196;2022-12-16T07:07:18;51.42;;;28.15;;
1048;SDS011;513;51.444;7.196;2022-12-16T07:10:02;82.22;;;40.30;;
1048;SDS011;513;51.444;7.196;2022-12-16T07:12:47;89.50;;;43.28;;
1048;SDS011;513;51.444;7.196;2022-12-16T07:15:31;82.88;;;41.03;;
1048;SDS011;513;51.444;7.196;2022-12-16T07:18:15;57.33;;;34.03;;
1048;SDS011;513;51.444;7.196;2022-12-16T07:21:01;44.40;;;25.48;;
1048;SDS011;513;51.444;7.196;2022-12-16T07:23:56;45.15;;;25.30;;
1048;SDS011;513;51.444;7.196;2022-12-16T07:26:41;44.50;;;25.70;;
1048;SDS011;513;51.444;7.196;2022-12-16T07:29:25;45.07;;;25.50;;
1048;SDS011;513;51.444;7.196;2022-12-16T07:32:21;44.38;;;25.38;;
1048;SDS011;513;51.444;7.196;2022-12-16T07:35:05;44.05;;;24.70;;
1048;SDS011;513;51.444;7.196;2022-12-16T07:37:51;45.42;;;23.55;;
1048;SDS011;513;51.444;7.196;2022-12-16T07:40:35;35.97;;;22.67;;
1048;SDS011;513;51.444;7.196;2022-12-16T07:43:19;42.20;;;22.45;;
1048;SDS011;513;51.444;7.196;2022-12-16T07:46:03;39.15;;;22.42;;
1048;SDS011;513;51.444;7.196;2022-12-16T07:48:48;42.83;;;22.88;;
1048;SDS011;513;51.444;7.196;2022-12-16T07:51:32;42.17;;;24.75;;
1048;SDS011;513;51.444;7.196;2022-12-16T07:54:17;48.53;;;25.58;;
1048;SDS011;513;51.444;7.196;2022-12-16T07:57:01;44.38;;;24.95;;
1048;SDS011;513;51.444;7.196;2022-12-16T07:59:46;41.97;;;23.23;;
1048;SDS011;513;51.444;7.196;2022-12-16T08:02:30;43.38;;;24.10;;
1048;SDS011;513;51.444;7.196;2022-12-16T08:05:14;46.10;;;25.60;;
1048;SDS011;513;51.444;7.196;2022-12-16T08:07:58;45.47;;;25.77;;
1048;SDS011;513;51.444;7.196;2022-12-16T08:10:44;69.55;;;47.40;;
1048;SDS011;513;51.444;7.196;2022-12-16T08:13:28;66.65;;;41.45;;
1048;SDS011;513;51.444;7.196;2022-12-16T08:16:12;62.20;;;36.27;;
1048;SDS011;513;51.444;7.196;2022-12-16T08:18:56;56.45;;;32.70;;
1048;SDS011;513;51.444;7.196;2022-12-16T08:21:41;55.55;;;31.58;;
1048;SDS011;513;51.444;7.196;2022-12-16T08:24:25;50.60;;;29.98;;
1048;SDS011;513;51.444;7.196;2022-12-16T08:27:10;55.40;;;30.52;;
1048;SDS011;513;51.444;7.196;2022-12-16T08:29:54;46.88;;;27.90;;
1048;SDS011;513;51.444;7.196;2022-12-16T08:32:38;50.40;;;28.85;;
1048;SDS011;513;51.444;7.196;2022-12-16T08:35:22;57.08;;;30.45;;
1048;SDS011;513;51.444;7.196;2022-12-16T08:38:06;58.33;;;31.60;;
1048;SDS011;513;51.444;7.196;2022-12-16T08:40:53;61.95;;;33.72;;
1048;SDS011;513;51.444;7.196;2022-12-16T08:43:39;63.05;;;34.97;;
1048;SDS011;513;51.444;7.196;2022-12-16T08:46:23;55.60;;;31.33;;
1048;SDS011;513;51.444;7.196;2022-12-16T08:49:08;53.88;;;31.42;;
1048;SDS011;513;51.444;7.196;2022-12-16T08:52:04;53.75;;;30.10;;
1048;SDS011;513;51.444;7.196;2022-12-16T08:54:48;48.90;;;27.65;;
1048;SDS011;513;51.444;7.196;2022-12-16T08:57:33;46.28;;;27.60;;
1048;SDS011;513;51.444;7.196;2022-12-16T09:00:18;51.15;;;27.65;;
1048;SDS011;513;51.444;7.196;2022-12-16T09:03:03;57.22;;;32.95;;
1048;SDS011;513;51.444;7.196;2022-12-16T09:05:47;57.50;;;31.95;;
1048;SDS011;513;51.444;7.196;2022-12-16T09:08:31;54.03;;;32.47;;
1048;SDS011;513;51.444;7.196;2022-12-16T09:11:15;52.07;;;31.93;;
1048;SDS011;513;51.444;7.196;2022-12-16T09:13:59;52.22;;;30.65;;
1048;SDS011;513;51.444;7.196;2022-12-16T09:16:45;48.35;;;28.42;;
1048;SDS011;513;51.444;7.196;2022-12-16T09:19:29;49.03;;;28.25;;
1048;SDS011;513;51.444;7.196;2022-12-16T09:22:13;43.47;;;26.30;;
1048;SDS011;513;51.444;7.196;2022-12-16T09:24:57;42.88;;;24.98;;
1048;SDS011;513;51.444;7.196;2022-12-16T09:27:41;43.22;;;25.63;;
1048;SDS011;513;51.444;7.196;2022-12-16T09:30:25;41.97;;;25.33;;
1048;SDS011;513;51.444;7.196;2022-12-16T09:33:11;43.67;;;26.33;;
1048;SDS011;513;51.444;7.196;2022-12-16T09:35:55;40.25;;;24.45;;
1048;SDS011;513;51.444;7.196;2022-12-16T09:38:39;39.42;;;24.83;;
1048;SDS011;513;51.444;7.196;2022-12-16T09:41:33;40.85;;;25.10;;
1048;SDS011;513;51.444;7.196;2022-12-16T09:44:26;41.22;;;25.35;;
1048;SDS011;513;51.444;7.196;2022-12-16T09:47:20;42.33;;;23.65;;
1048;SDS011;513;51.444;7.196;2022-12-16T09:50:16;39.88;;;24.67;;
1048;SDS011;513;51.444;7.196;2022-12-16T09:53:04;40.67;;;24.95;;
1048;SDS011;513;51.444;7.196;2022-12-16T09:55:52;41.83;;;24.95;;
1048;SDS011;513;51.444;7.196;2022-12-16T09:58:38;41.20;;;24.88;;
1048;SDS011;513;51.444;7.196;2022-12-16T10:01:25;43.33;;;25.92;;
1048;SDS011;513;51.444;7.196;2022-12-16T10:04:13;39.67;;;24.67;;
1048;SDS011;513;51.444;7.196;2022-12-16T10:07:00;39.83;;;23.90;;
1048;SDS011;513;51.444;7.196;2022-12-16T10:09:46;40.70;;;25.30;;
1048;SDS011;513;51.444;7.196;2022-12-16T10:12:40;37.90;;;24.35;;
1048;SDS011;513;51.444;7.196;2022-12-16T10:15:35;45.72;;;27.45;;
1048;SDS011;513;51.444;7.196;2022-12-16T10:18:40;46.50;;;27.90;;
1048;SDS011;513;51.444;7.196;2022-12-16T10:21:31;45.90;;;28.45;;
1048;SDS011;513;51.444;7.196;2022-12-16T10:24:23;42.75;;;26.77;;
1048;SDS011;513;51.444;7.196;2022-12-16T10:27:16;47.35;;;28.65;;
1048;SDS011;513;51.444;7.196;2022-12-16T10:30:10;48.40;;;30.75;;
1048;SDS011;513;51.444;7.196;2022-12-16T10:32:59;50.90;;;31.33;;
1048;SDS011;513;51.444;7.196;2022-12-16T10:35:44;49.83;;;30.70;;
1048;SDS011;513;51.444;7.196;2022-12-16T10:38:34;49.20;;;30.10;;
1048;SDS011;513;51.444;7.196;2022-12-16T10:41:23;44.92;;;29.33;;
1048;SDS011;513;51.444;7.196;2022-12-16T10:44:25;47.73;;;29.00;;
1048;SDS011;513;51.444;7.196;2022-12-16T10:47:14;46.42;;;29.70;;
1048;SDS011;513;51.444;7.196;2022-12-16T10:49:58;45.65;;;28.33;;
1048;SDS011;513;51.444;7.196;2022-12-16T10:52:43;42.58;;;25.58;;
1048;SDS011;513;51.444;7.196;2022-12-16T10:55:34;37.50;;;23.95;;
1048;SDS011;513;51.444;7.196;2022-12-16T10:58:31;39.75;;;25.88;;
1048;SDS011;513;51.444;7.196;2022-12-16T11:01:25;42.28;;;27.48;;
1048;SDS011;513;51.444;7.196;2022-12-16T11:04:26;46.55;;;28.60;;
1048;SDS011;513;51.444;7.196;2022-12-16T11:07:22;48.20;;;29.25;;
1048;SDS011;513;51.444;7.196;2022-12-16T11:10:22;47.63;;;30.97;;
1048;SDS011;513;51.444;7.196;2022-12-16T11:13:19;48.15;;;28.80;;
1048;SDS011;513;51.444;7.196;2022-12-16T11:16:08;49.15;;;30.00;;
1048;SDS011;513;51.444;7.196;2022-12-16T11:18:56;47.45;;;28.83;;
1048;SDS011;513;51.444;7.196;2022-12-16T11:21:40;44.85;;;28.25;;
1048;SDS011;513;51.444;7.196;2022-12-16T11:24:24;40.47;;;27.58;;
1048;SDS011;513;51.444;7.196;2022-12-16T11:27:13;43.70;;;28.98;;
1048;SDS011;513;51.444;7.196;2022-12-16T11:29:59;43.05;;;27.83;;
1048;SDS011;513;51.444;7.196;2022-12-16T11:32:47;41.97;;;26.13;;
1048;SDS011;513;51.444;7.196;2022-12-16T11:35:35;37.58;;;23.80;;
1048;SDS011;513;51.444;7.196;2022-12-16T11:38:24;40.22;;;26.00;;
1048;SDS011;513;51.444;7.196;2022-12-16T11:41:14;37.72;;;24.35;;
1048;SDS011;513;51.444;7.196;2022-12-16T11:44:07;37.45;;;24.38;;
1048;SDS011;513;51.444;7.196;2022-12-16T11:46:57;33.80;;;22.27;;
1048;SDS011;513;51.444;7.196;2022-12-16T11:49:43;30.23;;;19.38;;
1048;SDS011;513;51.444;7.196;2022-12-16T11:52:27;33.47;;;21.42;;
1048;SDS011;513;51.444;7.196;2022-12-16T11:55:16;33.40;;;20.25;;
1048;SDS011;513;51.444;7.196;2022-12-16T11:58:05;29.92;;;19.90;;
1048;SDS011;513;51.444;7.196;2022-12-16T12:00:59;36.30;;;22.05;;
1048;SDS011;513;51.444;7.196;2022-12-16T12:03:47;31.83;;;20.33;;
1048;SDS011;513;51.444;7.196;2022-12-16T12:06:39;41.73;;;24.87;;
1048;SDS011;513;51.444;7.196;2022-12-16T12:09:36;36.58;;;21.25;;
1048;SDS011;513;51.444;7.196;2022-12-16T12:12:29;29.85;;;20.45;;
1048;SDS011;513;51.444;7.196;2022-12-16T12:15:22;32.78;;;21.23;;
1048;SDS011;513;51.444;7.196;2022-12-16T12:18:12;43.75;;;28.15;;
1048;SDS011;513;51.444;7.196;2022-12-16T12:21:03;39.67;;;22.95;;
1048;SDS011;513;51.444;7.196;2022-12-16T12:23:59;40.65;;;24.17;;
1048;SDS011;513;51.444;7.196;2022-12-16T12:26:51;36.28;;;21.63;;
1048;SDS011;513;51.444;7.196;2022-12-16T12:29:42;36.33;;;23.35;;
1048;SDS011;513;51.444;7.196;2022-12-16T12:32:39;33.03;;;21.80;;
1048;SDS011;513;51.444;7.196;2022-12-16T12:35:33;36.72;;;23.13;;
1048;SDS011;513;51.444;7.196;2022-12-16T12:38:29;38.83;;;24.20;;
1048;SDS011;513;51.444;7.196;2022-12-16T12:41:21;39.47;;;24.10;;
1048;SDS011;513;51.444;7.196;2022-12-16T12:44:09;36.78;;;24.05;;
1048;SDS011;513;51.444;7.196;2022-12-16T12:47:03;37.97;;;23.05;;
1048;SDS011;513;51.444;7.196;2022-12-16T12:49:51;43.75;;;24.08;;
1048;SDS011;513;51.444;7.196;2022-12-16T12:52:46;35.55;;;22.08;;
1048;SDS011;513;51.444;7.196;2022-12-16T12:55:52;31.77;;;20.63;;
1048;SDS011;513;51.444;7.196;2022-12-16T12:58:45;35.58;;;22.13;;
1048;SDS011;513;51.444;7.196;2022-12-16T13:01:32;71.68;;;40.03;;
1048;SDS011;513;51.444;7.196;2022-12-16T13:04:20;36.17;;;23.08;;
1048;SDS011;513;51.444;7.196;2022-12-16T13:07:06;38.45;;;22.70;;
1048;SDS011;513;51.444;7.196;2022-12-16T13:13:19;36.65;;;23.10;;
1048;SDS011;513;51.444;7.196;2022-12-16T13:16:13;34.88;;;21.85;;
1048;SDS011;513;51.444;7.196;2022-12-16T13:19:53;39.60;;;24.45;;
1048;SDS011;513;51.444;7.196;2022-12-16T13:22:55;40.63;;;26.83;;
1048;SDS011;513;51.444;7.196;2022-12-16T13:25:41;37.17;;;24.10;;
1048;SDS011;513;51.444;7.196;2022-12-16T13:28:32;41.38;;;26.20;;
1048;SDS011;513;51.444;7.196;2022-12-16T13:31:20;38.33;;;23.07;;
1048;SDS011;513;51.444;7.196;2022-12-16T13:34:05;34.03;;;22.30;;
1048;SDS011;513;51.444;7.196;2022-12-16T13:37:06;35.75;;;22.27;;
1048;SDS011;513;51.444;7.196;2022-12-16T13:40:05;36.08;;;22.95;;
1048;SDS011;513;51.444;7.196;2022-12-16T13:42:58;42.47;;;26.37;;
1048;SDS011;513;51.444;7.196;2022-12-16T13:45:43;41.13;;;25.65;;
1048;SDS011;513;51.444;7.196;2022-12-16T13:48:51;44.13;;;27.63;;
1048;SDS011;513;51.444;7.196;2022-12-16T13:55:10;44.85;;;28.17;;
1048;SDS011;513;51.444;7.196;2022-12-16T13:58:00;50.20;;;31.98;;
1048;SDS011;513;51.444;7.196;2022-12-16T14:00:53;53.20;;;31.75;;
1048;SDS011;513;51.444;7.196;2022-12-16T14:03:43;51.67;;;31.15;;
1048;SDS011;513;51.444;7.196;2022-12-16T14:06:32;48.90;;;31.38;;
1048;SDS011;513;51.444;7.196;2022-12-16T14:09:25;52.78;;;32.42;;
1048;SDS011;513;51.444;7.196;2022-12-16T14:12:17;48.58;;;31.52;;
1048;SDS011;513;51.444;7.196;2022-12-16T14:15:25;49.28;;;31.42;;
1048;SDS011;513;51.444;7.196;2022-12-16T14:18:14;58.88;;;34.85;;
1048;SDS011;513;51.444;7.196;2022-12-16T14:21:08;67.68;;;41.30;;
1048;SDS011;513;51.444;7.196;2022-12-16T14:23:57;50.72;;;32.13;;
1048;SDS011;513;51.444;7.196;2022-12-16T14:26:46;53.47;;;33.35;;
1048;SDS011;513;51.444;7.196;2022-12-16T14:29:32;57.78;;;33.95;;
1048;SDS011;513;51.444;7.196;2022-12-16T14:32:18;53.55;;;33.72;;
1048;SDS011;513;51.444;7.196;2022-12-16T14:35:10;53.35;;;33.42;;
1048;SDS011;513;51.444;7.196;2022-12-16T14:37:56;51.70;;;32.90;;
1048;SDS011;513;51.444;7.196;2022-12-16T14:40:42;56.73;;;35.20;;
1048;SDS011;513;51.444;7.196;2022-12-16T14:43:33;55.72;;;34.72;;
1048;SDS011;513;51.444;7.196;2022-12-16T14:46:23;57.03;;;34.87;;
1048;SDS011;513;51.444;7.196;2022-12-16T14:49:14;56.50;;;36.13;;
1048;SDS011;513;51.444;7.196;2022-12-16T14:52:08;55.60;;;34.45;;
1048;SDS011;513;51.444;7.196;2022-12-16T14:54:58;55.70;;;33.85;;
1048;SDS011;513;51.444;7.196;2022-12-16T14:57:59;53.40;;;35.03;;
1048;SDS011;513;51.444;7.196;2022-12-16T15:00:45;58.90;;;36.25;;
1048;SDS011;513;51.444;7.196;2022-12-16T15:03:31;53.25;;;33.75;;
1048;SDS011;513;51.444;7.196;2022-12-16T15:06:21;55.13;;;34.95;;
1048;SDS011;513;51.444;7.196;2022-12-16T15:09:24;55.05;;;33.90;;
1048;SDS011;513;51.444;7.196;2022-12-16T15:12:11;54.75;;;35.03;;
1048;SDS011;513;51.444;7.196;2022-12-16T15:14:58;57.75;;;35.15;;
1048;SDS011;513;51.444;7.196;2022-12-16T15:17:46;55.57;;;35.00;;
1048;SDS011;513;51.444;7.196;2022-12-16T15:20:34;59.72;;;35.65;;
1048;SDS011;513;51.444;7.196;2022-12-16T15:23:21;59.13;;;35.22;;
1048;SDS011;513;51.444;7.196;2022-12-16T15:26:07;62.45;;;36.53;;
1048;SDS011;513;51.444;7.196;2022-12-16T15:28:53;60.03;;;38.58;;
1048;SDS011;513;51.444;7.196;2022-12-16T15:31:39;62.05;;;37.85;;
1048;SDS011;513;51.444;7.196;2022-12-16T15:34:24;68.65;;;38.97;;
1048;SDS011;513;51.444;7.196;2022-12-16T15:37:14;64.65;;;37.50;;
1048;SDS011;513;51.444;7.196;2022-12-16T15:39:59;67.82;;;38.60;;
1048;SDS011;513;51.444;7.196;2022-12-16T15:42:48;68.50;;;40.65;;
1048;SDS011;513;51.444;7.196;2022-12-16T15:45:33;64.80;;;40.47;;
1048;SDS011;513;51.444;7.196;2022-12-16T15:48:19;68.95;;;42.28;;
1048;SDS011;513;51.444;7.196;2022-12-16T15:51:18;74.70;;;43.72;;
1048;SDS011;513;51.444;7.196;2022-12-16T15:54:04;72.07;;;43.38;;
1048;SDS011;513;51.444;7.196;2022-12-16T15:56:48;69.45;;;42.95;;
1048;SDS011;513;51.444;7.196;2022-12-16T15:59:50;71.30;;;42.65;;
1048;SDS011;513;51.444;7.196;2022-12-16T16:02:43;76.22;;;45.25;;
1048;SDS011;513;51.444;7.196;2022-12-16T16:05:31;87.22;;;46.28;;
1048;SDS011;513;51.444;7.196;2022-12-16T16:08:16;89.50;;;48.78;;
1048;SDS011;513;51.444;7.196;2022-12-16T16:11:00;102.55;;;51.70;;
1048;SDS011;513;51.444;7.196;2022-12-16T16:13:45;120.38;;;57.70;;
1048;SDS011;513;51.444;7.196;2022-12-16T16:16:29;131.75;;;58.90;;
1048;SDS011;513;51.444;7.196;2022-12-16T16:19:15;135.27;;;60.38;;
1048;SDS011;513;51.444;7.196;2022-12-16T16:22:07;132.40;;;59.28;;
1048;SDS011;513;51.444;7.196;2022-12-16T16:24:53;138.73;;;60.57;;
1048;SDS011;513;51.444;7.196;2022-12-16T16:27:37;152.73;;;65.90;;
1048;SDS011;513;51.444;7.196;2022-12-16T16:30:21;155.02;;;65.15;;
1048;SDS011;513;51.444;7.196;2022-12-16T16:33:05;156.15;;;64.63;;
1048;SDS011;513;51.444;7.196;2022-12-16T16:35:49;164.38;;;67.60;;
1048;SDS011;513;51.444;7.196;2022-12-16T16:38:35;171.07;;;68.88;;
1048;SDS011;513;51.444;7.196;2022-12-16T16:41:19;164.82;;;69.95;;
1048;SDS011;513;51.444;7.196;2022-12-16T16:44:03;163.52;;;69.68;;
1048;SDS011;513;51.444;7.196;2022-12-16T16:46:58;160.32;;;69.20;;
1048;SDS011;513;51.444;7.196;2022-12-16T16:49:44;163.13;;;67.38;;
1048;SDS011;513;51.444;7.196;2022-12-16T16:52:30;163.80;;;70.45;;